Arbutus, MD

1:57 PM EDT on May 22, 2015 (GMT -0400)
Relay / Arbutus | | Change Station
CLOSE
Current Station
Personal Weather Station
Location: Relay, MD
Elevation: 221 ft
Nearby Weather Stations

Elev 221 ft 39.24 °N, 76.71 °W | Updated 2 minutes ago

Clear
Clear
70.4 °F
Feels Like 77 °F
N
14.0
Wind Variable Wind from WNW
Gusts 20.0 mph

Today
High -- | Low -- °F
--% Chance of Precip.
Yesterday
High -- | Low -- °F
Precip. -- in
5:48 AM 8:19 PM
Waxing Crescent, 23% visible
Pressure 30.08 in
Visibility 10.0 miles
Clouds Few 5000 ft
Scattered Clouds 25000 ft
Heat Index 77 °F
Dew Point 47 °F
Humidity 44%
Rainfall 0.00 in
Snow Depth Not available.
UV 9 out of 12
Pollen 8.80 out of 12
Air Quality Not available.
Flu Activity Sporadic
METAR KBWI 221654Z 27012G19KT 10SM FEW050 SCT250 21/06 A3008 RMK AO2 SLP184 T02110061

More Conditions Fewer Conditions

Pressure 30.08 in
Visibility 10.0 miles
Clouds Few 5000 ft
Scattered Clouds 25000 ft
Heat Index 77 °F
Dew Point 47 °F
Humidity 44%
Rainfall 0.00 in
Snow Depth Not available.
UV 9 out of 12
Pollen 8.80 out of 12
Air Quality Not available.
Flu Activity Sporadic
METAR KBWI 221654Z 27012G19KT 10SM FEW050 SCT250 21/06 A3008 RMK AO2 SLP184 T02110061

More Conditions Fewer Conditions

10-Day Weather Forecast

Almanac

Astronomy

May. 22, 2015 Rise Set
Actual Time
Civil Twilight
Nautical Twilight
Astronomical Twilight
Moon
Length of Visible Light
Length of Day
Tomorrow will be .
, % of the Moon is Illuminated

Today's Extremes

State Highs State Lows

Community

WunderPhotos

Upload Photos

1,823,269 photos uploaded!

WunderBlogs® & News

Nearby

Air Quality

  Air Quality AQ Index Pollutant
Not available.

Snow Depth

Station Depth Elevation

Earthquake Activity

City Distance Mag. Time & Date
Minimum magnitude displayed is 2.5.

Coastal Water Temperatures

Place Temperature

Stations

Nearby Weather Stations

Station Location Temp. Windchill Dew Point Humidity Wind Precip. Elev Updated Type